createdAt,value
2023-05-02T04:00:41.471Z,1006.67
2023-05-02T04:01:42.442Z,1006.69
2023-05-02T04:02:42.540Z,1006.73
2023-05-02T04:03:42.449Z,1006.74
2023-05-02T04:04:42.454Z,1006.75
2023-05-02T04:05:42.413Z,1006.77
2023-05-02T04:06:42.392Z,1006.79
2023-05-02T04:07:42.366Z,1006.80
2023-05-02T04:08:42.342Z,1006.83
2023-05-02T04:09:42.382Z,1006.84
2023-05-02T04:10:42.356Z,1006.84
2023-05-02T04:11:42.330Z,1006.86
2023-05-02T04:12:42.301Z,1006.88
2023-05-02T04:13:42.312Z,1006.90
2023-05-02T04:14:42.286Z,1006.91
2023-05-02T04:15:42.274Z,1006.92
2023-05-02T04:16:42.323Z,1006.93
2023-05-02T04:17:42.273Z,1006.95
2023-05-02T04:18:42.235Z,1006.96
2023-05-02T04:19:42.240Z,1006.98
2023-05-02T04:20:42.228Z,1006.99
2023-05-02T04:21:42.233Z,1007.03
2023-05-02T04:22:42.191Z,1007.03
2023-05-02T04:23:42.189Z,1007.05
2023-05-02T04:24:42.178Z,1007.06
2023-05-02T04:25:42.178Z,1007.07
2023-05-02T04:26:42.150Z,1007.05
2023-05-02T04:27:42.148Z,1007.05
2023-05-02T04:28:42.128Z,1007.05
2023-05-02T04:29:42.140Z,1007.06
2023-05-02T04:30:42.177Z,1007.07
2023-05-02T04:31:42.092Z,1007.08
2023-05-02T04:32:42.118Z,1007.08
2023-05-02T04:33:42.088Z,1007.11
2023-05-02T04:34:42.069Z,1007.13
2023-05-02T04:35:42.106Z,1007.13
2023-05-02T04:36:42.028Z,1007.14
2023-05-02T04:37:42.051Z,1007.16
2023-05-02T04:38:42.032Z,1007.16
2023-05-02T04:39:42.023Z,1007.17
2023-05-02T04:40:42.048Z,1007.19
2023-05-02T04:41:41.994Z,1007.19
2023-05-02T04:42:42.016Z,1007.21
2023-05-02T04:43:41.978Z,1007.23
2023-05-02T04:44:41.954Z,1007.25
2023-05-02T04:45:41.987Z,1007.26
2023-05-02T04:46:41.988Z,1007.26
2023-05-02T04:47:41.952Z,1007.28
2023-05-02T04:48:41.950Z,1007.27
2023-05-02T04:49:41.937Z,1007.31
2023-05-02T04:50:41.902Z,1007.33
2023-05-02T04:51:41.938Z,1007.31
2023-05-02T04:52:41.874Z,1007.33
2023-05-02T04:53:41.865Z,1007.33
2023-05-02T04:54:41.852Z,1007.33
2023-05-02T04:55:41.857Z,1007.35
2023-05-02T04:56:41.830Z,1007.39
2023-05-02T04:57:41.827Z,1007.38
2023-05-02T04:58:41.805Z,1007.38
2023-05-02T04:59:41.813Z,1007.40
2023-05-02T05:00:41.806Z,1007.41
2023-05-02T05:01:41.807Z,1007.44
2023-05-02T05:02:41.817Z,1007.44
2023-05-02T05:03:41.845Z,1007.47
2023-05-02T05:04:41.748Z,1007.48
2023-05-02T05:05:41.829Z,1007.47
2023-05-02T05:06:41.791Z,1007.48
2023-05-02T05:07:41.711Z,1007.49
2023-05-02T05:08:41.710Z,1007.49
2023-05-02T05:09:41.710Z,1007.51
2023-05-02T05:10:41.697Z,1007.50
2023-05-02T05:11:41.669Z,1007.50
2023-05-02T05:12:41.659Z,1007.54
2023-05-02T05:13:41.662Z,1007.55
2023-05-02T05:14:41.646Z,1007.56
2023-05-02T05:15:41.647Z,1007.57
2023-05-02T05:16:41.842Z,1007.59
2023-05-02T05:17:41.618Z,1007.61
2023-05-02T05:18:41.595Z,1007.62
2023-05-02T05:19:41.607Z,1007.64
2023-05-02T05:20:41.615Z,1007.67
2023-05-02T05:21:41.586Z,1007.69
2023-05-02T05:22:41.552Z,1007.70
2023-05-02T05:23:41.544Z,1007.70
2023-05-02T05:24:41.538Z,1007.72
2023-05-02T05:25:42.939Z,1007.75
2023-05-02T05:26:41.519Z,1007.76
2023-05-02T05:27:41.509Z,1007.77
2023-05-02T05:28:41.491Z,1007.75
2023-05-02T05:29:41.485Z,1007.83
2023-05-02T05:30:41.506Z,1007.81
2023-05-02T05:31:41.478Z,1007.83
2023-05-02T05:32:41.497Z,1007.84
2023-05-02T05:33:41.524Z,1007.86
2023-05-02T05:34:41.466Z,1007.87
2023-05-02T05:35:41.438Z,1007.88
2023-05-02T05:36:41.417Z,1007.89
2023-05-02T05:37:41.395Z,1007.89
2023-05-02T05:38:41.390Z,1007.93
2023-05-02T05:39:41.379Z,1007.93
2023-05-02T05:40:41.357Z,1007.97
2023-05-02T05:41:41.377Z,1007.96
2023-05-02T05:42:41.434Z,1007.99
2023-05-02T05:43:41.351Z,1008.00
2023-05-02T05:44:41.334Z,1008.02
2023-05-02T05:45:41.341Z,1008.06
2023-05-02T05:46:41.446Z,1008.07
2023-05-02T05:47:41.366Z,1008.12
2023-05-02T05:48:41.309Z,1008.15
2023-05-02T05:49:41.357Z,1008.15
2023-05-02T05:50:41.275Z,1008.19
2023-05-02T05:51:41.276Z,1008.22
2023-05-02T05:52:41.264Z,1008.22
2023-05-02T05:53:41.249Z,1008.23
2023-05-02T05:54:41.226Z,1008.24
2023-05-02T05:55:42.348Z,1008.23
2023-05-02T05:56:41.230Z,1008.28
2023-05-02T05:57:41.206Z,1008.30
2023-05-02T05:58:41.184Z,1008.31
2023-05-02T05:59:41.164Z,1008.34
2023-05-02T06:00:41.149Z,1008.30
2023-05-02T06:01:41.166Z,1008.33
2023-05-02T06:02:41.245Z,1008.36
2023-05-02T06:03:41.330Z,1008.36
2023-05-02T06:04:41.137Z,1008.37
2023-05-02T06:05:41.114Z,1008.36
2023-05-02T06:06:41.152Z,1008.36
2023-05-02T06:07:41.100Z,1008.36
2023-05-02T06:08:41.068Z,1008.38
2023-05-02T06:09:41.072Z,1008.39
2023-05-02T06:10:41.067Z,1008.42
2023-05-02T06:11:41.063Z,1008.41
2023-05-02T06:12:41.030Z,1008.41
2023-05-02T06:13:41.024Z,1008.43
2023-05-02T06:14:41.002Z,1008.43
2023-05-02T06:15:41.029Z,1008.46
2023-05-02T06:16:41.068Z,1008.45
2023-05-02T06:17:41.017Z,1008.44
2023-05-02T06:18:40.954Z,1008.46
2023-05-02T06:19:40.958Z,1008.47
2023-05-02T06:20:40.953Z,1008.49
2023-05-02T06:21:40.984Z,1008.55
2023-05-02T06:22:40.918Z,1008.57
2023-05-02T06:23:40.906Z,1008.56
2023-05-02T06:24:40.892Z,1008.58
2023-05-02T06:25:40.901Z,1008.59
2023-05-02T06:26:40.890Z,1008.60
2023-05-02T06:27:40.870Z,1008.66
2023-05-02T06:28:40.867Z,1008.62
2023-05-02T06:29:40.855Z,1008.63
2023-05-02T06:30:40.872Z,1008.68
2023-05-02T06:31:40.888Z,1008.69
2023-05-02T06:32:40.880Z,1008.66
2023-05-02T06:33:40.799Z,1008.68
2023-05-02T06:34:40.782Z,1008.70
2023-05-02T06:35:40.826Z,1008.72
2023-05-02T06:36:40.784Z,1008.77
2023-05-02T06:37:40.772Z,1008.79
2023-05-02T06:38:40.754Z,1008.81
2023-05-02T06:39:40.749Z,1008.82
2023-05-02T06:40:40.722Z,1008.84
2023-05-02T06:41:40.734Z,1008.87
2023-05-02T06:42:40.712Z,1008.87
2023-05-02T06:43:40.698Z,1008.91
2023-05-02T06:44:40.675Z,1008.93
2023-05-02T06:45:40.668Z,1008.96
2023-05-02T06:46:40.700Z,1008.95
2023-05-02T06:47:40.691Z,1009.00
2023-05-02T06:48:40.640Z,1009.03
2023-05-02T06:49:40.642Z,1009.03
2023-05-02T06:50:40.614Z,1009.06
2023-05-02T06:51:40.649Z,1009.11
2023-05-02T06:52:40.589Z,1009.13
2023-05-02T06:53:40.588Z,1009.14
2023-05-02T06:54:40.569Z,1009.13
2023-05-02T06:55:40.577Z,1009.15
2023-05-02T06:56:40.590Z,1009.16
2023-05-02T06:57:40.549Z,1009.17
2023-05-02T06:58:40.540Z,1009.15
2023-05-02T06:59:40.520Z,1009.16
2023-05-02T07:00:40.540Z,1009.17
2023-05-02T07:01:40.556Z,1009.16
2023-05-02T07:02:40.516Z,1009.18
2023-05-02T07:03:40.514Z,1009.22
2023-05-02T07:04:40.520Z,1009.22
2023-05-02T07:05:40.458Z,1009.21
2023-05-02T07:06:40.504Z,1009.23
2023-05-02T07:07:40.456Z,1009.24
2023-05-02T07:08:40.429Z,1009.25
2023-05-02T07:09:40.436Z,1009.27
2023-05-02T07:10:40.428Z,1009.29
2023-05-02T07:11:40.502Z,1009.30
2023-05-02T07:12:40.406Z,1009.31
2023-05-02T07:13:40.383Z,1009.34
2023-05-02T07:14:40.390Z,1009.36
2023-05-02T07:15:40.434Z,1009.36
2023-05-02T07:16:40.575Z,1009.39
2023-05-02T07:17:40.366Z,1009.40
2023-05-02T07:18:40.324Z,1009.45
2023-05-02T07:19:40.314Z,1009.51
2023-05-02T07:20:40.294Z,1009.52
2023-05-02T07:21:40.341Z,1009.56
2023-05-02T07:22:40.285Z,1009.63
2023-05-02T07:23:40.277Z,1009.60
2023-05-02T07:24:40.272Z,1009.63
2023-05-02T07:25:40.272Z,1009.66
2023-05-02T07:26:40.244Z,1009.67
2023-05-02T07:27:40.233Z,1009.66
2023-05-02T07:28:40.207Z,1009.70
2023-05-02T07:29:40.208Z,1009.70
2023-05-02T07:30:40.197Z,1009.74
2023-05-02T07:31:40.220Z,1009.74
2023-05-02T07:32:40.191Z,1009.79
2023-05-02T07:33:40.195Z,1009.80
2023-05-02T07:34:40.152Z,1009.83
2023-05-02T07:35:40.146Z,1009.84
2023-05-02T07:36:40.162Z,1009.89
2023-05-02T07:37:40.129Z,1009.90
2023-05-02T07:38:40.111Z,1009.93
2023-05-02T07:39:40.105Z,1009.93
2023-05-02T07:40:40.105Z,1009.94
2023-05-02T07:41:40.107Z,1009.97
2023-05-02T07:42:40.077Z,1009.96
2023-05-02T07:43:40.071Z,1009.97
2023-05-02T07:44:40.054Z,1010.00
2023-05-02T07:45:40.060Z,1010.02
2023-05-02T07:46:40.173Z,1010.06
2023-05-02T07:47:40.014Z,1010.10
2023-05-02T07:48:39.997Z,1010.14
2023-05-02T07:49:39.993Z,1010.25
2023-05-02T07:50:39.984Z,1010.21
2023-05-02T07:51:39.991Z,1010.23
2023-05-02T07:52:40.007Z,1010.27
2023-05-02T07:53:39.957Z,1010.30
2023-05-02T07:54:39.938Z,1010.29
2023-05-02T07:55:39.927Z,1010.35
2023-05-02T07:56:39.933Z,1010.36
2023-05-02T07:57:39.909Z,1010.38
2023-05-02T07:58:39.904Z,1010.41
2023-05-02T07:59:39.883Z,1010.44
2023-05-02T08:00:39.886Z,1010.47
2023-05-02T08:01:39.882Z,1010.49
2023-05-02T08:02:39.959Z,1010.50
2023-05-02T08:03:40.021Z,1010.48
2023-05-02T08:04:39.902Z,1010.51
2023-05-02T08:05:39.847Z,1010.53
2023-05-02T08:06:39.873Z,1010.56
2023-05-02T08:07:39.872Z,1010.57
2023-05-02T08:08:39.785Z,1010.57
2023-05-02T08:09:39.793Z,1010.58
2023-05-02T08:10:39.844Z,1010.59
2023-05-02T08:11:39.754Z,1010.60
2023-05-02T08:12:39.783Z,1010.62
2023-05-02T08:13:39.726Z,1010.60
2023-05-02T08:14:39.730Z,1010.63
2023-05-02T08:15:39.816Z,1010.62
2023-05-02T08:16:39.761Z,1010.66
2023-05-02T08:17:39.753Z,1010.67
2023-05-02T08:18:39.684Z,1010.69
2023-05-02T08:19:39.666Z,1010.71
2023-05-02T08:20:39.697Z,1010.74
2023-05-02T08:21:39.645Z,1010.76
2023-05-02T08:22:39.659Z,1010.79
2023-05-02T08:23:39.617Z,1010.80
2023-05-02T08:24:39.628Z,1010.81
2023-05-02T08:25:39.640Z,1010.83
2023-05-02T08:26:39.630Z,1010.82
2023-05-02T08:27:39.603Z,1010.83
2023-05-02T08:28:39.578Z,1010.84
2023-05-02T08:29:39.558Z,1010.85
2023-05-02T08:30:39.574Z,1010.83
2023-05-02T08:31:39.591Z,1010.84
2023-05-02T08:32:39.574Z,1010.87
2023-05-02T08:33:39.521Z,1010.86
2023-05-02T08:34:39.518Z,1010.83
2023-05-02T08:35:39.513Z,1010.85
2023-05-02T08:36:39.687Z,1010.88
2023-05-02T08:37:39.470Z,1010.93
2023-05-02T08:38:39.474Z,1010.93
2023-05-02T08:39:39.455Z,1010.95
2023-05-02T08:40:42.885Z,1010.95
2023-05-02T08:41:39.471Z,1010.98
2023-05-02T08:42:39.443Z,1010.97
2023-05-02T08:43:39.433Z,1010.98
2023-05-02T08:44:39.403Z,1010.99
2023-05-02T08:45:39.377Z,1011.03
2023-05-02T08:46:39.437Z,1011.02
2023-05-02T08:47:39.375Z,1011.06
2023-05-02T08:48:39.414Z,1011.09
2023-05-02T08:49:39.367Z,1011.12
2023-05-02T08:50:39.331Z,1011.17
2023-05-02T08:51:40.391Z,1011.17
2023-05-02T08:52:39.303Z,1011.18
2023-05-02T08:53:39.463Z,1011.18
2023-05-02T08:54:39.313Z,1011.18
2023-05-02T08:55:39.288Z,1011.20
2023-05-02T08:56:39.300Z,1011.20
2023-05-02T08:57:39.297Z,1011.22
2023-05-02T08:58:39.244Z,1011.22
2023-05-02T08:59:39.248Z,1011.25
2023-05-02T09:00:39.231Z,1011.26
2023-05-02T09:01:39.296Z,1011.26
2023-05-02T09:02:39.293Z,1011.28
2023-05-02T09:03:39.216Z,1011.27
2023-05-02T09:04:39.233Z,1011.30
2023-05-02T09:05:39.156Z,1011.32
2023-05-02T09:06:39.229Z,1011.32
2023-05-02T09:07:39.173Z,1011.37
2023-05-02T09:08:39.151Z,1011.42
2023-05-02T09:09:39.141Z,1011.41
2023-05-02T09:10:39.161Z,1011.45
2023-05-02T09:11:39.097Z,1011.46
2023-05-02T09:12:39.251Z,1011.50
2023-05-02T09:13:39.087Z,1011.47
2023-05-02T09:14:39.069Z,1011.49
2023-05-02T09:15:39.134Z,1011.54
2023-05-02T09:16:39.137Z,1011.54
2023-05-02T09:17:39.105Z,1011.53
2023-05-02T09:18:39.060Z,1011.57
2023-05-02T09:19:39.033Z,1011.61
2023-05-02T09:20:39.223Z,1011.61
2023-05-02T09:21:38.993Z,1011.62
2023-05-02T09:22:38.997Z,1011.61
2023-05-02T09:23:38.992Z,1011.66
2023-05-02T09:24:39.027Z,1011.63
2023-05-02T09:25:38.978Z,1011.65
2023-05-02T09:26:39.015Z,1011.66
2023-05-02T09:27:38.946Z,1011.68
2023-05-02T09:28:38.957Z,1011.73
2023-05-02T09:29:39.149Z,1011.67
2023-05-02T09:30:38.971Z,1011.71
2023-05-02T09:32:38.919Z,1011.75
2023-05-02T09:33:39.033Z,1011.81
2023-05-02T09:34:38.880Z,1011.80
2023-05-02T09:35:39.153Z,1011.82
2023-05-02T09:36:38.845Z,1011.83
2023-05-02T09:37:38.851Z,1011.83
2023-05-02T09:38:38.814Z,1011.84
2023-05-02T09:39:38.817Z,1011.85
2023-05-02T09:40:38.801Z,1011.85
2023-05-02T09:41:38.791Z,1011.82
2023-05-02T09:42:38.774Z,1011.84
2023-05-02T09:43:38.776Z,1011.82
2023-05-02T09:44:39.362Z,1011.84
2023-05-02T09:45:38.757Z,1011.84
2023-05-02T09:46:38.798Z,1011.84
2023-05-02T09:47:38.887Z,1011.83
2023-05-02T09:48:38.710Z,1011.84
2023-05-02T09:49:38.713Z,1011.85
2023-05-02T09:50:38.708Z,1011.87
2023-05-02T09:51:38.693Z,1011.89
2023-05-02T09:52:38.658Z,1011.90
2023-05-02T09:53:38.644Z,1011.91
2023-05-02T09:54:38.682Z,1011.96
2023-05-02T09:55:38.643Z,1011.95
2023-05-02T09:56:38.638Z,1011.97
2023-05-02T09:57:38.616Z,1011.96
2023-05-02T09:58:38.589Z,1011.97
2023-05-02T09:59:38.630Z,1011.99
2023-05-02T10:00:38.590Z,1012.03
2023-05-02T10:01:38.666Z,1012.01
2023-05-02T10:02:38.602Z,1012.04
2023-05-02T10:03:38.576Z,1012.02
2023-05-02T10:04:38.608Z,1012.02
2023-05-02T10:05:38.570Z,1012.05
2023-05-02T10:06:38.550Z,1012.04
2023-05-02T10:07:38.515Z,1012.03
2023-05-02T10:08:38.489Z,1012.01
2023-05-02T10:09:38.486Z,1011.99
2023-05-02T10:10:38.726Z,1012.00
2023-05-02T10:11:38.470Z,1012.00
2023-05-02T10:12:38.454Z,1012.01
2023-05-02T10:13:38.449Z,1012.02
2023-05-02T10:14:38.422Z,1012.04
2023-05-02T10:15:38.475Z,1012.04
2023-05-02T10:16:38.402Z,1012.04
2023-05-02T10:17:38.414Z,1012.05
2023-05-02T10:18:38.393Z,1012.09
2023-05-02T10:19:38.371Z,1012.05
2023-05-02T10:20:38.374Z,1012.08
2023-05-02T10:21:38.345Z,1012.08
2023-05-02T10:22:38.358Z,1012.08
2023-05-02T10:23:38.336Z,1012.10
2023-05-02T10:24:38.342Z,1012.14
2023-05-02T10:25:38.348Z,1012.14
2023-05-02T10:26:38.307Z,1012.13
2023-05-02T10:27:38.277Z,1012.18
2023-05-02T10:28:38.271Z,1012.19
2023-05-02T10:29:38.263Z,1012.18
2023-05-02T10:30:38.285Z,1012.14
2023-05-02T10:31:38.281Z,1012.15
2023-05-02T10:32:38.282Z,1012.15
2023-05-02T10:33:38.224Z,1012.24
2023-05-02T10:34:38.227Z,1012.23
2023-05-02T10:35:38.213Z,1012.26
2023-05-02T10:36:38.190Z,1012.29
2023-05-02T10:37:38.190Z,1012.26
2023-05-02T10:38:38.187Z,1012.25
2023-05-02T10:39:38.144Z,1012.27
2023-05-02T10:40:38.182Z,1012.27
2023-05-02T10:41:38.115Z,1012.30
2023-05-02T10:42:38.115Z,1012.29
2023-05-02T10:43:38.104Z,1012.26
2023-05-02T10:44:38.114Z,1012.26
2023-05-02T10:45:38.127Z,1012.24
2023-05-02T10:46:38.138Z,1012.25
2023-05-02T10:47:38.084Z,1012.26
2023-05-02T10:48:38.074Z,1012.22
2023-05-02T10:49:38.037Z,1012.23
2023-05-02T10:50:38.035Z,1012.22
2023-05-02T10:51:38.023Z,1012.22
2023-05-02T10:52:38.037Z,1012.24
2023-05-02T10:53:37.998Z,1012.24
2023-05-02T10:54:37.982Z,1012.25
2023-05-02T10:55:37.983Z,1012.25
2023-05-02T10:56:37.983Z,1012.26
2023-05-02T10:57:38.075Z,1012.23
2023-05-02T10:58:37.939Z,1012.24
2023-05-02T10:59:38.136Z,1012.21
2023-05-02T11:00:37.952Z,1012.20
2023-05-02T11:01:37.946Z,1012.21
2023-05-02T11:02:38.012Z,1012.23
2023-05-02T11:03:37.957Z,1012.22
2023-05-02T11:04:37.869Z,1012.27
2023-05-02T11:05:37.872Z,1012.29
2023-05-02T11:06:37.875Z,1012.31
2023-05-02T11:07:37.841Z,1012.33
2023-05-02T11:08:37.827Z,1012.34
2023-05-02T11:09:37.826Z,1012.37
2023-05-02T11:10:37.836Z,1012.36
2023-05-02T11:11:37.803Z,1012.35
2023-05-02T11:12:37.806Z,1012.35
2023-05-02T11:13:37.775Z,1012.33
2023-05-02T11:14:37.787Z,1012.30
2023-05-02T11:15:37.794Z,1012.31
2023-05-02T11:16:37.787Z,1012.30
2023-05-02T11:17:37.756Z,1012.30
2023-05-02T11:18:37.732Z,1012.28
2023-05-02T11:19:37.712Z,1012.31
2023-05-02T11:20:37.717Z,1012.31
2023-05-02T11:21:37.713Z,1012.34
2023-05-02T11:22:37.692Z,1012.33
2023-05-02T11:23:37.666Z,1012.34
2023-05-02T11:24:37.684Z,1012.36
2023-05-02T11:25:37.649Z,1012.36
2023-05-02T11:26:37.679Z,1012.37
2023-05-02T11:27:37.624Z,1012.34
2023-05-02T11:28:37.681Z,1012.35
2023-05-02T11:29:37.603Z,1012.37
2023-05-02T11:30:37.582Z,1012.36
2023-05-02T11:31:37.605Z,1012.38
2023-05-02T11:32:37.607Z,1012.37
2023-05-02T11:33:37.565Z,1012.40
2023-05-02T11:34:37.535Z,1012.41
2023-05-02T11:35:37.538Z,1012.40
2023-05-02T11:36:37.612Z,1012.40
2023-05-02T11:37:37.503Z,1012.40
2023-05-02T11:38:37.512Z,1012.40
2023-05-02T11:39:37.514Z,1012.43
2023-05-02T11:40:37.502Z,1012.41
2023-05-02T11:41:37.469Z,1012.45
2023-05-02T11:42:37.452Z,1012.44
2023-05-02T11:43:37.439Z,1012.46
2023-05-02T11:44:37.466Z,1012.46
2023-05-02T11:45:37.416Z,1012.47
2023-05-02T11:46:37.542Z,1012.50
2023-05-02T11:47:37.447Z,1012.47
2023-05-02T11:48:37.385Z,1012.45
2023-05-02T11:49:37.383Z,1012.46
2023-05-02T11:50:37.733Z,1012.51
2023-05-02T11:51:37.415Z,1012.51
2023-05-02T11:52:37.349Z,1012.52
2023-05-02T11:53:37.324Z,1012.53
2023-05-02T11:54:37.451Z,1012.54
2023-05-02T11:55:37.319Z,1012.53
2023-05-02T11:56:37.343Z,1012.54
2023-05-02T11:57:37.294Z,1012.54
2023-05-02T11:58:37.272Z,1012.58
2023-05-02T11:59:37.267Z,1012.65
2023-05-02T12:00:37.247Z,1012.64
2023-05-02T12:01:37.253Z,1012.73
2023-05-02T12:02:37.369Z,1012.71
2023-05-02T12:03:37.273Z,1012.78
2023-05-02T12:04:37.204Z,1012.79
2023-05-02T12:05:37.205Z,1012.80
2023-05-02T12:06:37.276Z,1012.85
2023-05-02T12:07:37.198Z,1012.87
2023-05-02T12:08:37.169Z,1012.87
2023-05-02T12:09:37.158Z,1012.86
2023-05-02T12:10:37.150Z,1012.86
2023-05-02T12:11:37.154Z,1012.88
2023-05-02T12:12:37.117Z,1012.88
2023-05-02T12:13:37.117Z,1012.88
2023-05-02T12:14:37.088Z,1012.91
2023-05-02T12:15:37.142Z,1012.89
2023-05-02T12:16:37.212Z,1012.94
2023-05-02T12:17:37.088Z,1012.94
2023-05-02T12:18:37.046Z,1012.94
2023-05-02T12:19:37.040Z,1012.94
2023-05-02T12:20:37.051Z,1012.94
2023-05-02T12:21:37.051Z,1012.93
2023-05-02T12:22:37.009Z,1012.95
2023-05-02T12:23:37.693Z,1012.93
2023-05-02T12:24:36.998Z,1012.90
2023-05-02T12:25:37.019Z,1012.89
2023-05-02T12:26:37.020Z,1012.89
2023-05-02T12:27:36.954Z,1012.88
2023-05-02T12:28:36.950Z,1012.91
2023-05-02T12:29:36.952Z,1012.91
2023-05-02T12:30:36.927Z,1012.93
2023-05-02T12:31:36.980Z,1012.94
2023-05-02T12:32:36.933Z,1012.90
2023-05-02T12:33:36.896Z,1012.94
2023-05-02T12:34:36.892Z,1012.94
2023-05-02T12:35:36.867Z,1012.94
2023-05-02T12:36:36.904Z,1012.93
2023-05-02T12:37:36.871Z,1012.95
2023-05-02T12:38:36.838Z,1012.91
2023-05-02T12:39:36.853Z,1012.98
2023-05-02T12:40:36.809Z,1013.05
2023-05-02T12:41:36.854Z,1013.03
2023-05-02T12:42:36.806Z,1013.04
2023-05-02T12:43:36.797Z,1013.07
2023-05-02T12:44:36.774Z,1013.06
2023-05-02T12:45:36.785Z,1013.06
2023-05-02T12:46:36.804Z,1013.06
2023-05-02T12:47:36.775Z,1013.04
2023-05-02T12:48:36.726Z,1013.10
2023-05-02T12:49:36.724Z,1013.10
2023-05-02T12:50:36.721Z,1013.08
2023-05-02T12:51:36.793Z,1013.09
2023-05-02T12:52:36.692Z,1013.11
2023-05-02T12:53:36.686Z,1013.04
2023-05-02T12:54:36.671Z,1013.06
2023-05-02T12:55:36.668Z,1013.03
2023-05-02T12:56:36.675Z,1013.04
2023-05-02T12:57:36.642Z,1013.06
2023-05-02T12:58:36.624Z,1013.07
2023-05-02T12:59:36.622Z,1013.09
2023-05-02T13:00:36.666Z,1013.06
2023-05-02T13:01:36.660Z,1013.07
2023-05-02T13:02:36.586Z,1013.08
2023-05-02T13:03:36.752Z,1013.13
2023-05-02T13:04:36.595Z,1013.10
2023-05-02T13:05:36.558Z,1013.12
2023-05-02T13:06:36.595Z,1013.13
2023-05-02T13:07:36.576Z,1013.15
2023-05-02T13:08:36.540Z,1013.14
2023-05-02T13:09:36.557Z,1013.15
2023-05-02T13:10:36.520Z,1013.18
2023-05-02T13:11:36.493Z,1013.19
2023-05-02T13:12:36.463Z,1013.21
2023-05-02T13:13:36.482Z,1013.18
2023-05-02T13:14:36.479Z,1013.16
2023-05-02T13:15:36.452Z,1013.13
2023-05-02T13:16:36.804Z,1013.09
2023-05-02T13:17:36.676Z,1013.09
2023-05-02T13:18:36.470Z,1013.17
2023-05-02T13:19:37.476Z,1013.21
2023-05-02T13:20:36.406Z,1013.22
2023-05-02T13:21:36.371Z,1013.29
2023-05-02T13:22:36.367Z,1013.27
2023-05-02T13:23:36.339Z,1013.28
2023-05-02T13:24:36.342Z,1013.23
2023-05-02T13:25:36.334Z,1013.19
2023-05-02T13:26:36.301Z,1013.24
2023-05-02T13:27:36.305Z,1013.27
2023-05-02T13:28:36.282Z,1013.26
2023-05-02T13:29:36.279Z,1013.28
2023-05-02T13:30:36.320Z,1013.29
2023-05-02T13:31:36.306Z,1013.31
2023-05-02T13:32:36.276Z,1013.29
2023-05-02T13:33:36.257Z,1013.28
2023-05-02T13:34:37.081Z,1013.25
2023-05-02T13:35:36.255Z,1013.26
2023-05-02T13:36:36.215Z,1013.26
2023-05-02T13:37:36.258Z,1013.24
2023-05-02T13:38:36.218Z,1013.26
2023-05-02T13:39:36.220Z,1013.27
2023-05-02T13:40:36.155Z,1013.28
2023-05-02T13:41:36.149Z,1013.32
2023-05-02T13:42:36.139Z,1013.32
2023-05-02T13:43:36.139Z,1013.31
2023-05-02T13:44:36.134Z,1013.35
2023-05-02T13:45:36.106Z,1013.33
2023-05-02T13:46:36.174Z,1013.32
2023-05-02T13:47:36.123Z,1013.30
2023-05-02T13:48:36.072Z,1013.35
2023-05-02T13:49:36.096Z,1013.36
2023-05-02T13:50:36.042Z,1013.42
2023-05-02T13:51:36.055Z,1013.41
2023-05-02T13:52:36.039Z,1013.38
2023-05-02T13:53:36.075Z,1013.40
2023-05-02T13:54:36.031Z,1013.42
2023-05-02T13:55:35.999Z,1013.41
2023-05-02T13:56:35.989Z,1013.43
2023-05-02T13:57:35.984Z,1013.43
2023-05-02T13:58:35.975Z,1013.39
2023-05-02T13:59:35.969Z,1013.39
2023-05-02T14:00:35.936Z,1013.40
2023-05-02T14:01:36.049Z,1013.39
2023-05-02T14:02:36.004Z,1013.38
2023-05-02T14:03:36.123Z,1013.40
2023-05-02T14:04:35.921Z,1013.36
2023-05-02T14:05:35.905Z,1013.34
2023-05-02T14:06:36.048Z,1013.36
2023-05-02T14:07:35.864Z,1013.39
2023-05-02T14:08:35.896Z,1013.39
2023-05-02T14:09:35.859Z,1013.40
2023-05-02T14:10:35.850Z,1013.40
2023-05-02T14:11:35.825Z,1013.40
2023-05-02T14:12:35.812Z,1013.41
2023-05-02T14:13:35.837Z,1013.38
2023-05-02T14:14:35.827Z,1013.38
2023-05-02T14:15:35.809Z,1013.36
2023-05-02T14:16:35.864Z,1013.40
2023-05-02T14:17:35.789Z,1013.43
2023-05-02T14:18:35.751Z,1013.39
2023-05-02T14:19:35.913Z,1013.39
2023-05-02T14:20:35.721Z,1013.47
2023-05-02T14:21:35.718Z,1013.45
2023-05-02T14:22:35.707Z,1013.46
2023-05-02T14:23:35.710Z,1013.45
2023-05-02T14:24:35.708Z,1013.50
2023-05-02T14:25:35.676Z,1013.46
2023-05-02T14:26:35.677Z,1013.47
2023-05-02T14:27:35.659Z,1013.45
2023-05-02T14:28:36.582Z,1013.45
2023-05-02T14:29:35.665Z,1013.47
2023-05-02T14:30:35.636Z,1013.48
2023-05-02T14:31:35.638Z,1013.50
2023-05-02T14:32:35.651Z,1013.52
2023-05-02T14:33:35.593Z,1013.51
2023-05-02T14:34:35.608Z,1013.50
2023-05-02T14:35:35.662Z,1013.46
2023-05-02T14:36:35.553Z,1013.47
2023-05-02T14:37:35.549Z,1013.47
2023-05-02T14:38:35.545Z,1013.50
2023-05-02T14:39:35.519Z,1013.49
2023-05-02T14:40:35.516Z,1013.54
2023-05-02T14:41:35.521Z,1013.57
2023-05-02T14:42:35.485Z,1013.58
2023-05-02T14:43:35.473Z,1013.58
2023-05-02T14:44:35.476Z,1013.59
2023-05-02T14:45:35.496Z,1013.57
2023-05-02T14:46:35.480Z,1013.55
2023-05-02T14:47:35.494Z,1013.57
2023-05-02T14:48:35.453Z,1013.53
2023-05-02T14:49:35.423Z,1013.54
2023-05-02T14:50:35.398Z,1013.52
2023-05-02T14:51:35.393Z,1013.55
2023-05-02T14:52:35.383Z,1013.54
2023-05-02T14:53:35.381Z,1013.53
2023-05-02T14:54:35.381Z,1013.55
2023-05-02T14:55:35.362Z,1013.54
2023-05-02T14:56:35.360Z,1013.54
2023-05-02T14:57:35.342Z,1013.51
2023-05-02T14:58:35.376Z,1013.51
2023-05-02T14:59:35.335Z,1013.49
2023-05-02T15:00:35.301Z,1013.50
2023-05-02T15:01:35.378Z,1013.48
2023-05-02T15:02:35.359Z,1013.49
2023-05-02T15:03:39.434Z,1013.52
2023-05-02T15:04:35.382Z,1013.51
2023-05-02T15:05:35.271Z,1013.48
2023-05-02T15:06:35.778Z,1013.47
2023-05-02T15:07:35.222Z,1013.47
2023-05-02T15:08:36.741Z,1013.46
2023-05-02T15:09:35.213Z,1013.48
2023-05-02T15:10:35.184Z,1013.45
2023-05-02T15:11:35.170Z,1013.42
2023-05-02T15:12:35.171Z,1013.43
2023-05-02T15:13:35.162Z,1013.43
2023-05-02T15:14:35.213Z,1013.43
2023-05-02T15:15:35.129Z,1013.41
2023-05-02T15:16:35.140Z,1013.42
2023-05-02T15:17:35.124Z,1013.44
2023-05-02T15:18:35.112Z,1013.44
2023-05-02T15:19:35.091Z,1013.45
2023-05-02T15:20:35.082Z,1013.45
2023-05-02T15:21:35.107Z,1013.44
2023-05-02T15:22:35.079Z,1013.43
2023-05-02T15:23:35.086Z,1013.45
2023-05-02T15:24:35.085Z,1013.41
2023-05-02T15:25:35.050Z,1013.41
2023-05-02T15:26:35.007Z,1013.39
2023-05-02T15:27:35.015Z,1013.40
2023-05-02T15:28:34.992Z,1013.40
2023-05-02T15:29:35.006Z,1013.42
2023-05-02T15:30:34.980Z,1013.43
2023-05-02T15:31:35.061Z,1013.42
2023-05-02T15:32:35.019Z,1013.43
2023-05-02T15:33:34.957Z,1013.44
2023-05-02T15:34:34.936Z,1013.46
2023-05-02T15:35:34.973Z,1013.47
2023-05-02T15:36:34.953Z,1013.48
2023-05-02T15:37:34.952Z,1013.49
2023-05-02T15:38:34.913Z,1013.50
2023-05-02T15:39:34.901Z,1013.50
2023-05-02T15:40:34.937Z,1013.50
2023-05-02T15:41:34.906Z,1013.50
2023-05-02T15:42:36.165Z,1013.49
2023-05-02T15:43:34.852Z,1013.50
2023-05-02T15:44:34.823Z,1013.49
2023-05-02T15:45:34.832Z,1013.49
2023-05-02T15:46:34.865Z,1013.52
2023-05-02T15:47:34.848Z,1013.53
2023-05-02T15:48:34.926Z,1013.53
2023-05-02T15:49:34.814Z,1013.53
2023-05-02T15:50:34.778Z,1013.55
2023-05-02T15:51:34.742Z,1013.61
2023-05-02T15:52:34.732Z,1013.59
2023-05-02T15:53:34.731Z,1013.58
2023-05-02T15:54:34.760Z,1013.58
2023-05-02T15:55:34.734Z,1013.61
2023-05-02T15:56:34.701Z,1013.59
2023-05-02T15:57:34.686Z,1013.61
2023-05-02T15:58:34.678Z,1013.62
2023-05-02T15:59:34.693Z,1013.61
2023-05-02T16:00:34.661Z,1013.64
2023-05-02T16:01:34.727Z,1013.64
2023-05-02T16:02:34.627Z,1013.68
2023-05-02T16:03:34.832Z,1013.67
2023-05-02T16:04:34.709Z,1013.66
2023-05-02T16:05:34.588Z,1013.67
2023-05-02T16:06:34.605Z,1013.66